sensor_id;sensor_type;location;lat;lon;timestamp;pressure;altitude;pressure_sealevel;temperature;humidity
49178;BME280;35016;55.674;37.468;2024-01-15T00:02:51;96905.91;;;-7.32;71.46
49178;BME280;35016;55.674;37.468;2024-01-15T00:05:18;96906.50;;;-7.30;71.41
49178;BME280;35016;55.674;37.468;2024-01-15T00:07:45;96891.50;;;-7.29;71.34
49178;BME280;35016;55.674;37.468;2024-01-15T00:12:58;96894.72;;;-7.21;71.74
49178;BME280;35016;55.674;37.468;2024-01-15T00:15:44;96888.00;;;-7.16;71.60
49178;BME280;35016;55.674;37.468;2024-01-15T00:18:12;96891.50;;;-7.23;71.14
49178;BME280;35016;55.674;37.468;2024-01-15T00:21:15;96892.25;;;-7.15;71.40
49178;BME280;35016;55.674;37.468;2024-01-15T00:24:01;96885.75;;;-7.13;71.25
49178;BME280;35016;55.674;37.468;2024-01-15T00:26:29;96889.19;;;-7.12;71.32
49178;BME280;35016;55.674;37.468;2024-01-15T00:28:56;96899.31;;;-7.09;71.98
49178;BME280;35016;55.674;37.468;2024-01-15T00:31:24;96882.09;;;-7.12;71.33
49178;BME280;35016;55.674;37.468;2024-01-15T00:33:51;96886.34;;;-7.11;71.43
49178;BME280;35016;55.674;37.468;2024-01-15T00:36:38;96878.25;;;-7.09;71.48
49178;BME280;35016;55.674;37.468;2024-01-15T00:39:24;96873.56;;;-7.07;71.79
49178;BME280;35016;55.674;37.468;2024-01-15T00:41:51;96881.03;;;-7.04;71.58
49178;BME280;35016;55.674;37.468;2024-01-15T00:44:18;96878.41;;;-7.04;71.53
49178;BME280;35016;55.674;37.468;2024-01-15T00:46:46;96854.53;;;-7.09;71.47
49178;BME280;35016;55.674;37.468;2024-01-15T00:49:15;96864.00;;;-7.02;71.68
49178;BME280;35016;55.674;37.468;2024-01-15T00:51:43;96866.41;;;-7.00;71.75
49178;BME280;35016;55.674;37.468;2024-01-15T00:54:10;96861.75;;;-6.98;71.54
49178;BME280;35016;55.674;37.468;2024-01-15T00:56:37;96868.63;;;-6.97;71.74
49178;BME280;35016;55.674;37.468;2024-01-15T00:59:05;96867.59;;;-6.96;71.88
49178;BME280;35016;55.674;37.468;2024-01-15T01:01:32;96854.44;;;-6.96;71.64
49178;BME280;35016;55.674;37.468;2024-01-15T01:04:00;96854.22;;;-6.95;71.57
49178;BME280;35016;55.674;37.468;2024-01-15T01:06:27;96860.28;;;-6.94;71.57
49178;BME280;35016;55.674;37.468;2024-01-15T01:08:56;96852.59;;;-6.96;71.11
49178;BME280;35016;55.674;37.468;2024-01-15T01:11:26;96849.97;;;-6.96;71.25
49178;BME280;35016;55.674;37.468;2024-01-15T01:13:54;96834.38;;;-6.97;71.91
49178;BME280;35016;55.674;37.468;2024-01-15T01:16:21;96843.91;;;-6.96;71.79
49178;BME280;35016;55.674;37.468;2024-01-15T01:18:48;96838.25;;;-7.00;71.61
49178;BME280;35016;55.674;37.468;2024-01-15T01:21:34;96832.56;;;-6.97;71.53
49178;BME280;35016;55.674;37.468;2024-01-15T01:24:21;96824.44;;;-6.95;71.68
49178;BME280;35016;55.674;37.468;2024-01-15T01:29:34;96830.72;;;-6.96;71.58
49178;BME280;35016;55.674;37.468;2024-01-15T01:32:02;96817.97;;;-6.93;71.79
49178;BME280;35016;55.674;37.468;2024-01-15T01:34:29;96820.16;;;-6.90;71.81
49178;BME280;35016;55.674;37.468;2024-01-15T01:37:00;96828.44;;;-6.86;71.95
49178;BME280;35016;55.674;37.468;2024-01-15T01:39:46;96814.47;;;-6.87;71.81
49178;BME280;35016;55.674;37.468;2024-01-15T01:42:13;96813.38;;;-6.79;71.74
49178;BME280;35016;55.674;37.468;2024-01-15T01:44:40;96818.00;;;-6.74;71.68
49178;BME280;35016;55.674;37.468;2024-01-15T01:47:08;96819.41;;;-6.72;71.92
49178;BME280;35016;55.674;37.468;2024-01-15T01:49:36;96815.31;;;-6.68;72.08
49178;BME280;35016;55.674;37.468;2024-01-15T01:54:51;96801.88;;;-6.60;71.98
49178;BME280;35016;55.674;37.468;2024-01-15T02:00:27;96794.69;;;-6.52;72.28
49178;BME280;35016;55.674;37.468;2024-01-15T02:02:54;96792.44;;;-6.49;71.64
49178;BME280;35016;55.674;37.468;2024-01-15T02:05:22;96788.78;;;-6.48;71.89
49178;BME280;35016;55.674;37.468;2024-01-15T02:08:08;96785.69;;;-6.45;72.28
49178;BME280;35016;55.674;37.468;2024-01-15T02:10:35;96788.13;;;-6.43;72.08
49178;BME280;35016;55.674;37.468;2024-01-15T02:13:04;96790.53;;;-6.42;72.25
49178;BME280;35016;55.674;37.468;2024-01-15T02:15:32;96805.09;;;-6.39;71.94
49178;BME280;35016;55.674;37.468;2024-01-15T02:20:48;96789.38;;;-6.28;72.04
49178;BME280;35016;55.674;37.468;2024-01-15T02:23:34;96794.00;;;-6.23;72.13
49178;BME280;35016;55.674;37.468;2024-01-15T02:26:21;96783.81;;;-6.19;72.41
49178;BME280;35016;55.674;37.468;2024-01-15T02:28:50;96795.53;;;-6.15;72.33
49178;BME280;35016;55.674;37.468;2024-01-15T02:31:19;96790.59;;;-6.12;71.96
49178;BME280;35016;55.674;37.468;2024-01-15T02:33:47;96788.78;;;-6.11;71.93
49178;BME280;35016;55.674;37.468;2024-01-15T02:36:15;96784.09;;;-6.09;71.99
49178;BME280;35016;55.674;37.468;2024-01-15T02:39:02;96785.28;;;-6.05;71.91
49178;BME280;35016;55.674;37.468;2024-01-15T02:41:29;96783.44;;;-6.05;71.96
49178;BME280;35016;55.674;37.468;2024-01-15T02:43:56;96797.22;;;-6.03;71.99
49178;BME280;35016;55.674;37.468;2024-01-15T02:46:42;96800.81;;;-5.97;72.33
49178;BME280;35016;55.674;37.468;2024-01-15T02:49:10;96789.22;;;-5.96;72.29
49178;BME280;35016;55.674;37.468;2024-01-15T02:51:38;96790.97;;;-5.90;72.15
49178;BME280;35016;55.674;37.468;2024-01-15T02:54:05;96782.81;;;-5.88;72.41
49178;BME280;35016;55.674;37.468;2024-01-15T02:56:33;96787.41;;;-5.84;72.13
49178;BME280;35016;55.674;37.468;2024-01-15T02:59:00;96789.59;;;-5.81;71.82
49178;BME280;35016;55.674;37.468;2024-01-15T03:01:27;96790.78;;;-5.77;72.06
49178;BME280;35016;55.674;37.468;2024-01-15T03:03:54;96789.31;;;-5.73;71.88
49178;BME280;35016;55.674;37.468;2024-01-15T03:06:22;96783.59;;;-5.70;71.99
49178;BME280;35016;55.674;37.468;2024-01-15T03:09:07;96777.06;;;-5.67;72.03
49178;BME280;35016;55.674;37.468;2024-01-15T03:11:38;96778.44;;;-5.65;72.16
49178;BME280;35016;55.674;37.468;2024-01-15T03:14:06;96780.84;;;-5.63;72.13
49178;BME280;35016;55.674;37.468;2024-01-15T03:16:33;96773.50;;;-5.61;72.29
49178;BME280;35016;55.674;37.468;2024-01-15T03:19:19;96769.03;;;-5.61;72.40
49178;BME280;35016;55.674;37.468;2024-01-15T03:21:47;96764.56;;;-5.60;72.23
49178;BME280;35016;55.674;37.468;2024-01-15T03:27:01;96759.63;;;-5.56;72.27
49178;BME280;35016;55.674;37.468;2024-01-15T03:29:28;96769.53;;;-5.52;72.11
49178;BME280;35016;55.674;37.468;2024-01-15T03:34:43;96749.59;;;-5.48;72.24
49178;BME280;35016;55.674;37.468;2024-01-15T03:37:29;96752.81;;;-5.46;72.26
49178;BME280;35016;55.674;37.468;2024-01-15T03:40:15;96750.50;;;-5.42;71.80
49178;BME280;35016;55.674;37.468;2024-01-15T03:43:05;96744.78;;;-5.39;72.31
49178;BME280;35016;55.674;37.468;2024-01-15T03:45:33;96755.91;;;-5.37;71.82
49178;BME280;35016;55.674;37.468;2024-01-15T03:48:37;96745.69;;;-5.34;71.74
49178;BME280;35016;55.674;37.468;2024-01-15T03:51:22;96743.63;;;-5.32;71.74
49178;BME280;35016;55.674;37.468;2024-01-15T03:53:50;96741.13;;;-5.26;72.29
49178;BME280;35016;55.674;37.468;2024-01-15T03:56:19;96750.41;;;-5.24;72.14
49178;BME280;35016;55.674;37.468;2024-01-15T03:58:46;96752.41;;;-5.19;71.84
49178;BME280;35016;55.674;37.468;2024-01-15T04:01:13;96744.03;;;-5.16;72.37
49178;BME280;35016;55.674;37.468;2024-01-15T04:03:41;96739.31;;;-5.14;71.81
49178;BME280;35016;55.674;37.468;2024-01-15T04:06:09;96740.69;;;-5.12;72.02
49178;BME280;35016;55.674;37.468;2024-01-15T04:08:36;96735.19;;;-5.10;72.48
49178;BME280;35016;55.674;37.468;2024-01-15T04:11:04;96734.50;;;-5.06;72.10
49178;BME280;35016;55.674;37.468;2024-01-15T04:13:34;96744.03;;;-5.05;72.02
49178;BME280;35016;55.674;37.468;2024-01-15T04:16:01;96742.41;;;-5.06;72.41
49178;BME280;35016;55.674;37.468;2024-01-15T04:18:28;96747.34;;;-5.09;72.09
49178;BME280;35016;55.674;37.468;2024-01-15T04:20:56;96743.22;;;-5.05;72.07
49178;BME280;35016;55.674;37.468;2024-01-15T04:23:41;96744.59;;;-5.03;72.82
49178;BME280;35016;55.674;37.468;2024-01-15T04:26:08;96723.94;;;-5.06;72.34
49178;BME280;35016;55.674;37.468;2024-01-15T04:28:36;96729.31;;;-5.01;72.46
49178;BME280;35016;55.674;37.468;2024-01-15T04:31:03;96736.22;;;-5.00;72.35
49178;BME280;35016;55.674;37.468;2024-01-15T04:33:31;96731.50;;;-4.97;72.28
49178;BME280;35016;55.674;37.468;2024-01-15T04:36:04;96729.31;;;-5.01;72.76
49178;BME280;35016;55.674;37.468;2024-01-15T04:38:51;96723.34;;;-4.96;72.32
49178;BME280;35016;55.674;37.468;2024-01-15T04:44:06;96725.75;;;-4.94;72.54
49178;BME280;35016;55.674;37.468;2024-01-15T04:46:33;96726.34;;;-4.92;72.43
49178;BME280;35016;55.674;37.468;2024-01-15T04:49:01;96732.22;;;-4.90;72.47
49178;BME280;35016;55.674;37.468;2024-01-15T04:51:47;96727.63;;;-4.83;72.33
49178;BME280;35016;55.674;37.468;2024-01-15T04:54:15;96725.56;;;-4.81;72.96
49178;BME280;35016;55.674;37.468;2024-01-15T04:56:45;96729.81;;;-4.80;72.38
49178;BME280;35016;55.674;37.468;2024-01-15T04:59:13;96732.22;;;-4.79;72.67
49178;BME280;35016;55.674;37.468;2024-01-15T05:04:27;96723.81;;;-4.76;72.78
49178;BME280;35016;55.674;37.468;2024-01-15T05:09:59;96729.22;;;-4.71;72.65
49178;BME280;35016;55.674;37.468;2024-01-15T05:12:48;96721.84;;;-4.69;72.34
49178;BME280;35016;55.674;37.468;2024-01-15T05:15:33;96733.00;;;-4.67;72.65
49178;BME280;35016;55.674;37.468;2024-01-15T05:18:20;96725.53;;;-4.70;72.99
49178;BME280;35016;55.674;37.468;2024-01-15T05:20:47;96729.91;;;-4.63;72.77
49178;BME280;35016;55.674;37.468;2024-01-15T05:26:02;96732.66;;;-4.58;72.81
49178;BME280;35016;55.674;37.468;2024-01-15T05:28:29;96730.03;;;-4.58;72.60
49178;BME280;35016;55.674;37.468;2024-01-15T05:30:56;96725.78;;;-4.59;72.48
49178;BME280;35016;55.674;37.468;2024-01-15T05:33:25;96730.59;;;-4.56;73.08
49178;BME280;35016;55.674;37.468;2024-01-15T05:35:52;96730.38;;;-4.55;72.66
49178;BME280;35016;55.674;37.468;2024-01-15T05:41:07;96727.25;;;-4.52;72.80
49178;BME280;35016;55.674;37.468;2024-01-15T05:43:34;96726.69;;;-4.54;72.71
49178;BME280;35016;55.674;37.468;2024-01-15T05:46:01;96724.63;;;-4.52;72.74
49178;BME280;35016;55.674;37.468;2024-01-15T05:48:29;96722.53;;;-4.50;72.40
49178;BME280;35016;55.674;37.468;2024-01-15T05:51:14;96734.16;;;-4.51;72.85
49178;BME280;35016;55.674;37.468;2024-01-15T05:54:00;96725.53;;;-4.46;72.59
49178;BME280;35016;55.674;37.468;2024-01-15T05:56:27;96729.19;;;-4.47;72.81
49178;BME280;35016;55.674;37.468;2024-01-15T05:58:54;96724.25;;;-4.44;72.69
49178;BME280;35016;55.674;37.468;2024-01-15T06:01:21;96725.38;;;-4.40;73.26
49178;BME280;35016;55.674;37.468;2024-01-15T06:03:48;96729.16;;;-4.36;72.65
49178;BME280;35016;55.674;37.468;2024-01-15T06:09:02;96731.38;;;-4.32;72.69
49178;BME280;35016;55.674;37.468;2024-01-15T06:11:50;96730.22;;;-4.25;72.59
49178;BME280;35016;55.674;37.468;2024-01-15T06:14:17;96726.28;;;-4.22;72.81
49178;BME280;35016;55.674;37.468;2024-01-15T06:19:49;96723.75;;;-4.17;72.79
49178;BME280;35016;55.674;37.468;2024-01-15T06:22:17;96719.59;;;-4.13;73.14
49178;BME280;35016;55.674;37.468;2024-01-15T06:24:45;96722.56;;;-4.10;72.79
49178;BME280;35016;55.674;37.468;2024-01-15T06:27:12;96722.88;;;-4.06;73.00
49178;BME280;35016;55.674;37.468;2024-01-15T06:29:44;96715.44;;;-4.09;72.59
49178;BME280;35016;55.674;37.468;2024-01-15T06:32:32;96729.78;;;-3.93;73.10
49178;BME280;35016;55.674;37.468;2024-01-15T06:35:18;96731.94;;;-3.90;72.56
49178;BME280;35016;55.674;37.468;2024-01-15T06:37:48;96731.72;;;-3.89;72.49
49178;BME280;35016;55.674;37.468;2024-01-15T06:40:16;96729.38;;;-3.85;73.05
49178;BME280;35016;55.674;37.468;2024-01-15T06:42:43;96725.13;;;-3.86;72.70
49178;BME280;35016;55.674;37.468;2024-01-15T06:45:10;96732.13;;;-3.80;73.06
49178;BME280;35016;55.674;37.468;2024-01-15T06:47:37;96743.63;;;-3.75;72.79
49178;BME280;35016;55.674;37.468;2024-01-15T06:50:04;96745.25;;;-3.73;72.67
49178;BME280;35016;55.674;37.468;2024-01-15T06:52:34;96739.47;;;-3.70;72.79
49178;BME280;35016;55.674;37.468;2024-01-15T06:55:01;96736.91;;;-3.65;72.85
49178;BME280;35016;55.674;37.468;2024-01-15T07:00:16;96742.06;;;-3.59;72.95
49178;BME280;35016;55.674;37.468;2024-01-15T07:02:43;96744.78;;;-3.54;72.90
49178;BME280;35016;55.674;37.468;2024-01-15T07:05:10;96735.81;;;-3.53;73.09
49178;BME280;35016;55.674;37.468;2024-01-15T07:07:56;96729.59;;;-3.47;72.66
49178;BME280;35016;55.674;37.468;2024-01-15T07:10:23;96735.53;;;-3.39;73.06
49178;BME280;35016;55.674;37.468;2024-01-15T07:12:50;96737.47;;;-3.35;72.69
49178;BME280;35016;55.674;37.468;2024-01-15T07:15:36;96728.22;;;-3.32;72.80
49178;BME280;35016;55.674;37.468;2024-01-15T07:18:59;96738.97;;;-3.22;72.34
49178;BME280;35016;55.674;37.468;2024-01-15T07:21:26;96734.81;;;-3.18;72.88
49178;BME280;35016;55.674;37.468;2024-01-15T07:23:53;96731.72;;;-3.15;72.53
49178;BME280;35016;55.674;37.468;2024-01-15T07:26:38;96744.41;;;-3.17;72.60
49178;BME280;35016;55.674;37.468;2024-01-15T07:29:06;96745.28;;;-3.12;72.77
49178;BME280;35016;55.674;37.468;2024-01-15T07:34:19;96735.88;;;-3.02;72.71
49178;BME280;35016;55.674;37.468;2024-01-15T07:36:46;96747.28;;;-3.02;72.56
49178;BME280;35016;55.674;37.468;2024-01-15T07:39:14;96730.09;;;-2.99;72.74
49178;BME280;35016;55.674;37.468;2024-01-15T07:41:41;96739.97;;;-2.95;72.74
49178;BME280;35016;55.674;37.468;2024-01-15T07:44:09;96742.69;;;-2.90;72.72
49178;BME280;35016;55.674;37.468;2024-01-15T07:46:36;96751.56;;;-2.84;72.64
49178;BME280;35016;55.674;37.468;2024-01-15T07:49:03;96743.66;;;-2.79;72.82
49178;BME280;35016;55.674;37.468;2024-01-15T07:51:32;96734.97;;;-2.74;72.88
49178;BME280;35016;55.674;37.468;2024-01-15T07:53:59;96736.91;;;-2.70;72.53
49178;BME280;35016;55.674;37.468;2024-01-15T07:56:27;96727.97;;;-2.64;72.79
49178;BME280;35016;55.674;37.468;2024-01-15T07:58:54;96729.19;;;-2.55;72.69
49178;BME280;35016;55.674;37.468;2024-01-15T08:01:21;96736.97;;;-2.48;72.62
49178;BME280;35016;55.674;37.468;2024-01-15T08:04:07;96736.78;;;-2.41;72.24
49178;BME280;35016;55.674;37.468;2024-01-15T08:06:54;96731.53;;;-2.36;72.25
49178;BME280;35016;55.674;37.468;2024-01-15T08:09:57;96730.22;;;-2.34;72.17
49178;BME280;35016;55.674;37.468;2024-01-15T08:12:25;96740.84;;;-2.34;72.32
49178;BME280;35016;55.674;37.468;2024-01-15T08:15:10;96735.53;;;-2.34;72.40
49178;BME280;35016;55.674;37.468;2024-01-15T08:20:40;96736.09;;;-2.32;72.48
49178;BME280;35016;55.674;37.468;2024-01-15T08:23:08;96732.44;;;-2.31;72.53
49178;BME280;35016;55.674;37.468;2024-01-15T08:25:35;96731.38;;;-2.30;72.18
49178;BME280;35016;55.674;37.468;2024-01-15T08:30:50;96732.91;;;-2.12;72.62
49178;BME280;35016;55.674;37.468;2024-01-15T08:33:36;96729.66;;;-1.97;72.44
49178;BME280;35016;55.674;37.468;2024-01-15T08:36:04;96737.78;;;-1.82;72.63
49178;BME280;35016;55.674;37.468;2024-01-15T08:41:17;96748.09;;;-1.37;72.27
49178;BME280;35016;55.674;37.468;2024-01-15T08:43:44;96748.69;;;-1.30;71.81
49178;BME280;35016;55.674;37.468;2024-01-15T08:46:12;96743.38;;;-1.30;71.72
49178;BME280;35016;55.674;37.468;2024-01-15T08:48:39;96750.25;;;-1.34;71.89
49178;BME280;35016;55.674;37.468;2024-01-15T08:51:06;96741.19;;;-1.38;71.89
49178;BME280;35016;55.674;37.468;2024-01-15T08:53:52;96745.97;;;-1.40;71.83
49178;BME280;35016;55.674;37.468;2024-01-15T08:56:36;96746.22;;;-1.41;71.97
49178;BME280;35016;55.674;37.468;2024-01-15T08:59:21;96739.59;;;-1.39;72.13
49178;BME280;35016;55.674;37.468;2024-01-15T09:04:38;96739.38;;;-1.32;72.14
49178;BME280;35016;55.674;37.468;2024-01-15T09:07:08;96731.66;;;-1.34;71.71
49178;BME280;35016;55.674;37.468;2024-01-15T09:09:35;96736.16;;;-1.34;71.74
49178;BME280;35016;55.674;37.468;2024-01-15T09:12:03;96742.75;;;-1.42;71.88
49178;BME280;35016;55.674;37.468;2024-01-15T09:14:31;96742.94;;;-1.48;71.85
49178;BME280;35016;55.674;37.468;2024-01-15T09:17:04;96740.72;;;-1.57;72.13
49178;BME280;35016;55.674;37.468;2024-01-15T09:19:32;96732.00;;;-1.52;72.38
49178;BME280;35016;55.674;37.468;2024-01-15T09:21:59;96737.91;;;-1.45;72.19
49178;BME280;35016;55.674;37.468;2024-01-15T09:24:27;96731.09;;;-1.36;72.40
49178;BME280;35016;55.674;37.468;2024-01-15T09:26:55;96733.06;;;-1.26;72.13
49178;BME280;35016;55.674;37.468;2024-01-15T09:29:41;96727.09;;;-1.11;71.97
49178;BME280;35016;55.674;37.468;2024-01-15T09:32:30;96739.97;;;-0.93;71.61
49178;BME280;35016;55.674;37.468;2024-01-15T09:34:59;96731.31;;;-0.83;71.85
49178;BME280;35016;55.674;37.468;2024-01-15T09:37:26;96728.94;;;-0.80;71.37
49178;BME280;35016;55.674;37.468;2024-01-15T09:40:31;96734.00;;;-0.78;71.37
49178;BME280;35016;55.674;37.468;2024-01-15T09:43:20;96734.00;;;-0.78;70.85
49178;BME280;35016;55.674;37.468;2024-01-15T09:45:49;96737.97;;;-0.81;71.37
49178;BME280;35016;55.674;37.468;2024-01-15T09:48:17;96742.22;;;-0.80;71.62
49178;BME280;35016;55.674;37.468;2024-01-15T09:50:46;96736.09;;;-0.80;71.37
49178;BME280;35016;55.674;37.468;2024-01-15T09:53:15;96741.94;;;-0.83;71.60
49178;BME280;35016;55.674;37.468;2024-01-15T09:58:28;96745.13;;;-0.86;71.40
49178;BME280;35016;55.674;37.468;2024-01-15T10:00:57;96734.94;;;-0.89;71.40
49178;BME280;35016;55.674;37.468;2024-01-15T10:03:43;96743.94;;;-0.96;71.53
49178;BME280;35016;55.674;37.468;2024-01-15T10:06:28;96747.63;;;-1.02;71.33
49178;BME280;35016;55.674;37.468;2024-01-15T10:08:57;96745.72;;;-1.06;71.64
49178;BME280;35016;55.674;37.468;2024-01-15T10:14:13;96738.00;;;-1.08;71.63
49178;BME280;35016;55.674;37.468;2024-01-15T10:16:41;96727.34;;;-1.13;71.66
49178;BME280;35016;55.674;37.468;2024-01-15T10:19:09;96751.56;;;-1.09;71.55
49178;BME280;35016;55.674;37.468;2024-01-15T10:21:37;96739.31;;;-1.10;71.52
49178;BME280;35016;55.674;37.468;2024-01-15T10:24:04;96732.16;;;-1.10;71.57
49178;BME280;35016;55.674;37.468;2024-01-15T10:26:32;96738.00;;;-1.08;71.59
49178;BME280;35016;55.674;37.468;2024-01-15T10:28:59;96744.38;;;-1.09;71.51
49178;BME280;35016;55.674;37.468;2024-01-15T10:31:44;96748.34;;;-1.11;71.62
49178;BME280;35016;55.674;37.468;2024-01-15T10:34:30;96747.03;;;-1.09;71.60
49178;BME280;35016;55.674;37.468;2024-01-15T10:36:58;96740.66;;;-1.08;71.92
49178;BME280;35016;55.674;37.468;2024-01-15T10:39:43;96742.78;;;-1.10;71.45
49178;BME280;35016;55.674;37.468;2024-01-15T10:44:57;96743.22;;;-1.18;71.70
49178;BME280;35016;55.674;37.468;2024-01-15T10:47:24;96738.69;;;-1.17;71.83
49178;BME280;35016;55.674;37.468;2024-01-15T10:50:10;96736.84;;;-1.17;71.82
49178;BME280;35016;55.674;37.468;2024-01-15T10:52:39;96731.31;;;-1.15;71.87
49178;BME280;35016;55.674;37.468;2024-01-15T10:55:25;96736.41;;;-1.09;71.75
49178;BME280;35016;55.674;37.468;2024-01-15T10:58:10;96731.88;;;-1.08;71.59
49178;BME280;35016;55.674;37.468;2024-01-15T11:00:38;96735.09;;;-1.06;71.87
49178;BME280;35016;55.674;37.468;2024-01-15T11:03:06;96737.50;;;-1.05;71.79
49178;BME280;35016;55.674;37.468;2024-01-15T11:05:42;96735.91;;;-1.06;71.33
49178;BME280;35016;55.674;37.468;2024-01-15T11:08:10;96742.81;;;-1.05;71.56
49178;BME280;35016;55.674;37.468;2024-01-15T11:10:58;96735.09;;;-1.06;71.51
49178;BME280;35016;55.674;37.468;2024-01-15T11:16:02;96723.16;;;-1.04;71.31
49178;BME280;35016;55.674;37.468;2024-01-15T11:18:32;96734.06;;;-1.00;71.73
49178;BME280;35016;55.674;37.468;2024-01-15T11:23:50;96724.75;;;-1.03;71.43
49178;BME280;35016;55.674;37.468;2024-01-15T11:32:18;96721.59;;;-1.00;71.34
49178;BME280;35016;55.674;37.468;2024-01-15T11:34:59;96719.44;;;-1.03;71.56
49178;BME280;35016;55.674;37.468;2024-01-15T11:42:49;96731.59;;;-1.12;71.50
49178;BME280;35016;55.674;37.468;2024-01-15T11:45:20;96720.91;;;-1.17;71.23
49178;BME280;35016;55.674;37.468;2024-01-15T11:48:10;96723.25;;;-1.20;71.20
49178;BME280;35016;55.674;37.468;2024-01-15T11:50:42;96729.88;;;-1.23;71.95
49178;BME280;35016;55.674;37.468;2024-01-15T11:53:33;96725.88;;;-1.26;71.31
49178;BME280;35016;55.674;37.468;2024-01-15T11:56:06;96725.63;;;-1.24;71.59
49178;BME280;35016;55.674;37.468;2024-01-15T11:58:36;96726.44;;;-1.23;71.82
49178;BME280;35016;55.674;37.468;2024-01-15T12:01:04;96725.38;;;-1.22;71.61
49178;BME280;35016;55.674;37.468;2024-01-15T12:03:32;96726.38;;;-1.29;71.66
49178;BME280;35016;55.674;37.468;2024-01-15T12:06:00;96723.72;;;-1.29;71.65
49178;BME280;35016;55.674;37.468;2024-01-15T12:08:28;96721.56;;;-1.32;71.82
49178;BME280;35016;55.674;37.468;2024-01-15T12:10:55;96722.09;;;-1.35;71.88
49178;BME280;35016;55.674;37.468;2024-01-15T12:13:24;96723.94;;;-1.35;71.74
49178;BME280;35016;55.674;37.468;2024-01-15T12:15:51;96727.66;;;-1.36;71.69
49178;BME280;35016;55.674;37.468;2024-01-15T12:18:19;96719.94;;;-1.38;71.89
49178;BME280;35016;55.674;37.468;2024-01-15T12:20:47;96729.25;;;-1.35;71.67
49178;BME280;35016;55.674;37.468;2024-01-15T12:23:15;96716.47;;;-1.38;71.92
49178;BME280;35016;55.674;37.468;2024-01-15T12:26:01;96715.91;;;-1.40;71.70
49178;BME280;35016;55.674;37.468;2024-01-15T12:28:28;96720.44;;;-1.41;72.04
49178;BME280;35016;55.674;37.468;2024-01-15T12:31:38;96731.56;;;-1.44;71.41
49178;BME280;35016;55.674;37.468;2024-01-15T12:34:30;96723.22;;;-1.52;72.25
49178;BME280;35016;55.674;37.468;2024-01-15T12:37:11;96720.53;;;-1.58;71.89
49178;BME280;35016;55.674;37.468;2024-01-15T12:39:39;96737.06;;;-1.50;71.81
49178;BME280;35016;55.674;37.468;2024-01-15T12:42:28;96726.44;;;-1.50;71.96
49178;BME280;35016;55.674;37.468;2024-01-15T12:45:17;96722.16;;;-1.51;72.09
49178;BME280;35016;55.674;37.468;2024-01-15T12:47:45;96722.97;;;-1.51;72.31
49178;BME280;35016;55.674;37.468;2024-01-15T12:50:13;96729.09;;;-1.50;72.29
49178;BME280;35016;55.674;37.468;2024-01-15T12:52:46;96718.97;;;-1.53;72.14
49178;BME280;35016;55.674;37.468;2024-01-15T12:55:32;96726.19;;;-1.49;71.90
49178;BME280;35016;55.674;37.468;2024-01-15T12:57:59;96737.06;;;-1.50;71.88
49178;BME280;35016;55.674;37.468;2024-01-15T13:00:31;96722.31;;;-1.63;72.11
49178;BME280;35016;55.674;37.468;2024-01-15T13:02:58;96730.09;;;-1.57;72.10
49178;BME280;35016;55.674;37.468;2024-01-15T13:05:28;96731.94;;;-1.57;72.10
49178;BME280;35016;55.674;37.468;2024-01-15T13:07:59;96722.63;;;-1.60;72.11
49178;BME280;35016;55.674;37.468;2024-01-15T13:10:27;96734.84;;;-1.59;72.40
49178;BME280;35016;55.674;37.468;2024-01-15T13:13:16;96733.31;;;-1.54;72.23
49178;BME280;35016;55.674;37.468;2024-01-15T13:15:43;96733.56;;;-1.56;72.36
49178;BME280;35016;55.674;37.468;2024-01-15T13:18:10;96733.31;;;-1.54;72.35
49178;BME280;35016;55.674;37.468;2024-01-15T13:20:38;96739.41;;;-1.54;72.16
49178;BME280;35016;55.674;37.468;2024-01-15T13:23:05;96740.22;;;-1.53;72.53
49178;BME280;35016;55.674;37.468;2024-01-15T13:25:32;96742.06;;;-1.54;72.41
49178;BME280;35016;55.674;37.468;2024-01-15T13:28:03;96731.69;;;-1.56;72.51
49178;BME280;35016;55.674;37.468;2024-01-15T13:30:32;96739.16;;;-1.52;72.44
49178;BME280;35016;55.674;37.468;2024-01-15T13:36:02;96741.56;;;-1.51;72.48
49178;BME280;35016;55.674;37.468;2024-01-15T13:38:29;96744.47;;;-1.52;72.35
49178;BME280;35016;55.674;37.468;2024-01-15T13:41:04;96740.78;;;-1.51;72.51
49178;BME280;35016;55.674;37.468;2024-01-15T13:43:34;96744.47;;;-1.52;72.70
49178;BME280;35016;55.674;37.468;2024-01-15T13:46:01;96744.47;;;-1.52;72.70
49178;BME280;35016;55.674;37.468;2024-01-15T13:48:48;96749.78;;;-1.52;72.71
49178;BME280;35016;55.674;37.468;2024-01-15T13:51:16;96745.78;;;-1.55;72.45
49178;BME280;35016;55.674;37.468;2024-01-15T13:54:01;96752.19;;;-1.51;72.39
49178;BME280;35016;55.674;37.468;2024-01-15T13:56:31;96753.00;;;-1.50;72.57
49178;BME280;35016;55.674;37.468;2024-01-15T13:59:04;96743.72;;;-1.48;72.46
49178;BME280;35016;55.674;37.468;2024-01-15T14:04:38;96745.03;;;-1.50;72.65
49178;BME280;35016;55.674;37.468;2024-01-15T14:07:24;96744.53;;;-1.47;72.51
49178;BME280;35016;55.674;37.468;2024-01-15T14:09:51;96734.94;;;-1.48;72.66
49178;BME280;35016;55.674;37.468;2024-01-15T14:12:19;96723.78;;;-1.50;72.70
49178;BME280;35016;55.674;37.468;2024-01-15T14:15:04;96738.41;;;-1.48;72.55
49178;BME280;35016;55.674;37.468;2024-01-15T14:20:36;96738.13;;;-1.51;72.79
49178;BME280;35016;55.674;37.468;2024-01-15T14:23:06;96733.31;;;-1.54;72.99
49178;BME280;35016;55.674;37.468;2024-01-15T14:25:33;96738.31;;;-1.58;72.73
49178;BME280;35016;55.674;37.468;2024-01-15T14:28:01;96725.84;;;-1.58;72.99
49178;BME280;35016;55.674;37.468;2024-01-15T14:30:28;96726.63;;;-1.57;73.04
49178;BME280;35016;55.674;37.468;2024-01-15T14:32:56;96726.34;;;-1.61;73.04
49178;BME280;35016;55.674;37.468;2024-01-15T14:35:41;96728.19;;;-1.61;73.38
49178;BME280;35016;55.674;37.468;2024-01-15T14:38:27;96716.75;;;-1.62;73.27
49178;BME280;35016;55.674;37.468;2024-01-15T14:40:54;96716.50;;;-1.60;73.16
49178;BME280;35016;55.674;37.468;2024-01-15T14:43:21;96711.72;;;-1.63;73.43
49178;BME280;35016;55.674;37.468;2024-01-15T14:46:07;96711.16;;;-1.65;73.28
49178;BME280;35016;55.674;37.468;2024-01-15T14:48:34;96712.47;;;-1.68;73.56
49178;BME280;35016;55.674;37.468;2024-01-15T14:51:01;96712.47;;;-1.68;73.37